Flight Track Log - Related Links

Times and Time Zones

All times are in EDT time to prevent confusion due to time zone crossing. See the N231CW flight status page for this flight to view local times or setup timezone preferences in your user account.

Time Position Orientation Groundspeed Altitude Reporting Facility
EDT Latitude Longitude Course Direction KTS MPH feet Rate Location/Type
Tue 07:17:25 PM 31.2050 -97.9336 196° South 185 213 14,500  Level Houston Center
Tue 07:18:27 PM 31.1564 -97.9508 197° South 183 211 14,500  Level Houston Center
Tue 07:19:29 PM 31.1064 -97.9692 197° South 186 214 14,500  Level Houston Center
Tue 07:20:31 PM 31.0483 -97.9892 196° South 185 213 14,500  Level Houston Center
Tue 07:21:33 PM 31.0006 -98.0075 198° South 181 208 14,500  Level Houston Center
Tue 07:22:00 PM 30.9103 -98.0152 196° South  Level Estimated
Tue 07:22:35 PM 30.9533 -98.0256 198° South 179 206 14,500  Level Houston Center
Tue 07:23:36 PM 30.9044 -98.0425 197° South 180 207 14,500  Level Houston Center
Tue 07:24:38 PM 30.8561 -98.0594 197° South 180 207 14,500  Level Houston Center
Tue 07:25:40 PM 30.8072 -98.0769 197° South 181 208 14,500 -145 Level Houston Center
Tue 07:26:42 PM 30.7572 -98.0939 196° South 184 212 14,200 -581 Descending Houston Center
Tue 07:27:44 PM 30.6942 -98.1175 198° South 197 227 13,300 -774 Descending Houston Center
Tue 07:28:46 PM 30.6358 -98.1378 197° South 211 243 12,600 -677 Descending Houston Center
Tue 07:29:48 PM 30.5797 -98.1572 197° South 210 242 11,900 -629 Descending Houston Center
Tue 07:30:50 PM 30.5242 -98.1769 197° South 207 238 11,300 -677 Descending Houston Center
Tue 07:31:52 PM 30.4681 -98.1972 197° South 208 239 10,500 -823 Descending Houston Center
Tue 07:32:54 PM 30.4106 -98.2172 197° South 212 244 9,600 -878 Descending Houston Center
Tue 07:33:55 PM 30.3547 -98.2361 196° South 210 242 8,700 -878 Descending Houston Center
Tue 07:34:57 PM 30.2936 -98.2575 197° South 204 235 7,800 -818 Descending Houston Center
Tue 07:35:23 PM 30.2711 -98.2669 200° South 195 224 7,500 -677 Descending Houston Center
Tue 07:35:59 PM 30.2403 -98.2769 196° South 188 216 7,100 -608 Descending Houston Center
Tue 07:36:42 PM 30.2058 -98.2894 197° South 185 213 6,700 -484 Descending Houston Center
Tue 07:37:01 PM 30.1903 -98.2944 196° South 187 215 6,600 -545 Descending Houston Center
Tue 07:37:37 PM 30.1611 -98.3044 197° South 183 211 6,200 -677 Descending Houston Center
Tue 07:38:03 PM 30.1386 -98.3128 198° South 182 209 5,900 -556 Descending Houston Center
Tue 07:38:31 PM 30.1167 -98.3219 200° South 180 207 5,700 -590 Descending Houston Center
Tue 07:39:04 PM 30.0911 -98.3292 194° South 179 206 5,300 -537 Descending Houston Center
Tue 07:39:38 PM 30.0656 -98.3381 197° South 175 201 5,100 -484 Descending Houston Center
Tue 07:40:06 PM 30.0453 -98.3453 197° South 172 198 4,800 -590 Descending Houston Center
Tue 07:40:39 PM 30.0208 -98.3531 195° South 168 193 4,500 -677 Descending Houston Center
Tue 07:41:08 PM 29.9981 -98.3619 199° South 164 189 4,100 -655 Descending Houston Center
Tue 07:41:34 PM 29.9822 -98.3675 197° South 159 183 3,900 -581 Descending Houston Center
Tue 07:42:10 PM 29.9569 -98.3756 195° South 155 178 3,500 -590 Descending Houston Center
Tue 07:42:35 PM 29.9414 -98.3819 200° South 152 175 3,300 -484 Descending Houston Center
Tue 07:43:12 PM 29.9156 -98.3897 195° South 145 167 3,000 -444 Descending Houston Center
Tue 07:43:29 PM 29.9089 -98.3933 205° Southwest 138 159 2,900 -97 Descending Houston Center
Tue 07:44:14 PM 29.8806 -98.4017 194° South 139 160 2,900  Level Houston Center

Login

Don't have an account? Register now (free) for customized features, flight alerts, and more!